Sumter, SC

4:10 PM EDT on July 28, 2014 (GMT -0400)
USC Sumter (KSCSUMTE2) Elev 165 ft | 33.93 °N, 80.37 °W | Change Station

Current weather conditions updated 9 minutes ago

Clear
Clear
96.3 °F
Feels Like 103 °F
N
9.0
Wind Variable Wind from NE
Gusts 22.0 mph

Tomorrow is forecast to be Much Cooler than today.

Today
High -- | Low -- °F
--% Chance of Precip.
Yesterday
High -- | Low -- °F
Precip. -- in
6:29 AM 8:24 PM
Waxing Crescent, 3% visible
Pressure 29.78 in
Visibility 10.0 miles
Clouds Clear
Heat Index 103 °F
Dew Point 70 °F
Humidity 43%
Rainfall -999.00 in
Snow Depth Not available.
UV 4.5 out of 12
Pollen 6.30 out of 12
Ozone Good
Flu Activity Not available.
METAR KSMS 281935Z AUTO 25005G15KT 10SM CLR 35/23 A2978 RMK AO2

More Conditions Fewer Conditions

Pressure 29.78 in
Visibility 10.0 miles
Clouds Clear
Heat Index 103 °F
Dew Point 70 °F
Humidity 43%
Rainfall -999.00 in
Snow Depth Not available.
UV 4.5 out of 12
Pollen 6.30 out of 12
Ozone Good
Flu Activity Not available.
METAR KSMS 281935Z AUTO 25005G15KT 10SM CLR 35/23 A2978 RMK AO2

More Conditions Fewer Conditions

10-Day Weather Forecast

Almanac

Astronomy

Jul. 28, 2014 Rise Set
Actual Time 6:29 AM EDT 8:24 PM EDT
Civil Twilight 6:02 AM EDT 8:52 PM EDT
Nautical Twilight 5:28 AM EDT 9:25 PM EDT
Astronomical Twilight 4:53 AM EDT 10:01 PM EDT
Moon 8:02 AM EDT 9:14 PM EDT
Length of Visible Light 14h 50m
Length of Day
13h 54m
Tomorrow will be 1m 30s shorter.
Waxing Crescent, 3% of the Moon is Illuminated
Today
Waxing Crescent
Aug 3
First Quarter
Aug 10
Full
Aug 17
Last Quarter
Aug 25
New

Today's Extremes

State Highs State Lows

Community

WunderPhotos

Upload Photos

1,738,486 photos uploaded!

Nearby

Air Quality

  Air Quality AQ Index Pollutant
Yesterday Good
OZONE
Current Good
OZONE
Monday Good
OZONE
Tuesday Good
OZONE

Snow Depth

Station Depth Elevation
No new snow has been reported.

Earthquake Activity

City Distance Mag. Time & Date
No recent earthquake activity has been reported nearby.
Minimum magnitude displayed is 2.5.

Coastal Water Temperatures

Place Temperature
No Stations Reporting

Nearby Weather Stations

Station Location Temp. Heat Index Dew Point Humidity Wind Precip. Elev Updated Type
USC Sumter, Sumter, SC 96.3 °F 103 °F 70 °F 43% NE  at  9.0 mph 0.00 in / hr 165 ft 4:00 PM EDT Normal
Southwest Sumter, Sumter, SC 94.1 °F 99 °F 69 °F 44% West  at  15.0 mph 0.00 in / hr 171 ft 4:10 PM EDT Rapid Fire
Sunway Knolls, Sumter, SC 92.1 °F 103 °F 75 °F 57% North  at  0.0 mph 0.00 in / hr 181 ft 4:10 PM EDT Rapid Fire
Garden Gate, Sumter, SC 91.2 °F 104 °F 76 °F 62% SE  at  1.2 mph 0.00 in / hr 200 ft 4:10 PM EDT Rapid Fire
Dalzell,SC, Sumter, SC 101.7 °F 126 °F 81 °F 52% SW  at  0.0 mph 0.00 in / hr 185 ft 4:10 PM EDT Rapid Fire
RAWS SANTEE NWR SC, Santee, SC 93 °F 106 °F 76 °F 58% WSW  at  12 mph 0.00 in / hr 78 ft 2:44 PM EDT MADIS

Show More Stations Show Fewer Stations